sensor_id;sensor_type;location;lat;lon;timestamp;P1;durP1;ratioP1;P2;durP2;ratioP2
19705;SDS011;10003;52.506;4.700;2023-11-21T00:00:53;3.30;;;3.03;;
19705;SDS011;10003;52.506;4.700;2023-11-21T00:03:23;1.13;;;1.13;;
19705;SDS011;10003;52.506;4.700;2023-11-21T00:05:51;7.63;;;1.43;;
19705;SDS011;10003;52.506;4.700;2023-11-21T00:08:19;1.70;;;1.03;;
19705;SDS011;10003;52.506;4.700;2023-11-21T00:10:48;0.77;;;0.77;;
19705;SDS011;10003;52.506;4.700;2023-11-21T00:13:17;5.70;;;3.33;;
19705;SDS011;10003;52.506;4.700;2023-11-21T00:15:46;1.13;;;1.13;;
19705;SDS011;10003;52.506;4.700;2023-11-21T00:18:14;0.80;;;0.80;;
19705;SDS011;10003;52.506;4.700;2023-11-21T00:20:44;0.50;;;0.50;;
19705;SDS011;10003;52.506;4.700;2023-11-21T00:23:12;0.50;;;0.50;;
19705;SDS011;10003;52.506;4.700;2023-11-21T00:25:41;0.73;;;0.73;;
19705;SDS011;10003;52.506;4.700;2023-11-21T00:28:10;0.50;;;0.50;;
19705;SDS011;10003;52.506;4.700;2023-11-21T00:30:39;0.50;;;0.50;;
19705;SDS011;10003;52.506;4.700;2023-11-21T00:33:07;0.50;;;0.50;;
19705;SDS011;10003;52.506;4.700;2023-11-21T00:35:36;1.23;;;1.23;;
19705;SDS011;10003;52.506;4.700;2023-11-21T00:38:06;0.50;;;0.50;;
19705;SDS011;10003;52.506;4.700;2023-11-21T00:40:35;0.70;;;0.70;;
19705;SDS011;10003;52.506;4.700;2023-11-21T00:43:04;0.83;;;0.83;;
19705;SDS011;10003;52.506;4.700;2023-11-21T00:45:32;0.50;;;0.50;;
19705;SDS011;10003;52.506;4.700;2023-11-21T00:48:03;0.50;;;0.50;;
19705;SDS011;10003;52.506;4.700;2023-11-21T00:50:31;0.60;;;0.60;;
19705;SDS011;10003;52.506;4.700;2023-11-21T00:53:00;0.73;;;0.73;;
19705;SDS011;10003;52.506;4.700;2023-11-21T00:55:30;0.53;;;0.53;;
19705;SDS011;10003;52.506;4.700;2023-11-21T00:57:59;0.50;;;0.50;;
19705;SDS011;10003;52.506;4.700;2023-11-21T01:00:29;0.50;;;0.50;;
19705;SDS011;10003;52.506;4.700;2023-11-21T01:02:58;0.50;;;0.50;;
19705;SDS011;10003;52.506;4.700;2023-11-21T01:05:26;0.80;;;0.80;;
19705;SDS011;10003;52.506;4.700;2023-11-21T01:07:55;1.63;;;0.93;;
19705;SDS011;10003;52.506;4.700;2023-11-21T01:10:23;0.60;;;0.60;;
19705;SDS011;10003;52.506;4.700;2023-11-21T01:12:53;0.60;;;0.60;;
19705;SDS011;10003;52.506;4.700;2023-11-21T01:15:21;0.77;;;0.77;;
19705;SDS011;10003;52.506;4.700;2023-11-21T01:17:52;1.27;;;1.23;;
19705;SDS011;10003;52.506;4.700;2023-11-21T01:20:20;0.50;;;0.50;;
19705;SDS011;10003;52.506;4.700;2023-11-21T01:22:49;0.80;;;0.80;;
19705;SDS011;10003;52.506;4.700;2023-11-21T01:25:17;0.57;;;0.57;;
19705;SDS011;10003;52.506;4.700;2023-11-21T01:27:47;1.37;;;1.37;;
19705;SDS011;10003;52.506;4.700;2023-11-21T01:30:17;0.50;;;0.50;;
19705;SDS011;10003;52.506;4.700;2023-11-21T01:32:45;1.17;;;1.17;;
19705;SDS011;10003;52.506;4.700;2023-11-21T01:35:14;0.50;;;0.50;;
19705;SDS011;10003;52.506;4.700;2023-11-21T01:37:42;5.97;;;1.73;;
19705;SDS011;10003;52.506;4.700;2023-11-21T01:40:11;0.50;;;0.50;;
19705;SDS011;10003;52.506;4.700;2023-11-21T01:42:41;0.50;;;0.50;;
19705;SDS011;10003;52.506;4.700;2023-11-21T01:45:11;0.93;;;0.93;;
19705;SDS011;10003;52.506;4.700;2023-11-21T01:47:41;1.27;;;1.17;;
19705;SDS011;10003;52.506;4.700;2023-11-21T01:50:12;0.50;;;0.50;;
19705;SDS011;10003;52.506;4.700;2023-11-21T01:52:42;0.50;;;0.50;;
19705;SDS011;10003;52.506;4.700;2023-11-21T01:55:12;0.53;;;0.53;;
19705;SDS011;10003;52.506;4.700;2023-11-21T01:57:53;0.40;;;0.40;;
19705;SDS011;10003;52.506;4.700;2023-11-21T02:00:22;0.50;;;0.50;;
19705;SDS011;10003;52.506;4.700;2023-11-21T02:02:53;1.30;;;1.20;;
19705;SDS011;10003;52.506;4.700;2023-11-21T02:05:23;0.63;;;0.63;;
19705;SDS011;10003;52.506;4.700;2023-11-21T02:07:52;0.50;;;0.50;;
19705;SDS011;10003;52.506;4.700;2023-11-21T02:10:20;0.50;;;0.50;;
19705;SDS011;10003;52.506;4.700;2023-11-21T02:12:50;1.13;;;1.03;;
19705;SDS011;10003;52.506;4.700;2023-11-21T02:15:19;1.33;;;1.33;;
19705;SDS011;10003;52.506;4.700;2023-11-21T02:17:48;0.50;;;0.50;;
19705;SDS011;10003;52.506;4.700;2023-11-21T02:20:20;0.50;;;0.50;;
19705;SDS011;10003;52.506;4.700;2023-11-21T02:22:53;0.50;;;0.50;;
19705;SDS011;10003;52.506;4.700;2023-11-21T02:25:25;0.40;;;0.40;;
19705;SDS011;10003;52.506;4.700;2023-11-21T02:27:54;0.50;;;0.50;;
19705;SDS011;10003;52.506;4.700;2023-11-21T02:30:23;0.97;;;0.87;;
19705;SDS011;10003;52.506;4.700;2023-11-21T02:32:51;0.97;;;0.97;;
19705;SDS011;10003;52.506;4.700;2023-11-21T02:35:20;2.90;;;1.37;;
19705;SDS011;10003;52.506;4.700;2023-11-21T02:37:49;2.63;;;1.80;;
19705;SDS011;10003;52.506;4.700;2023-11-21T02:40:19;0.60;;;0.60;;
19705;SDS011;10003;52.506;4.700;2023-11-21T02:42:47;0.70;;;0.70;;
19705;SDS011;10003;52.506;4.700;2023-11-21T02:45:17;0.47;;;0.47;;
19705;SDS011;10003;52.506;4.700;2023-11-21T02:47:47;1.70;;;1.07;;
19705;SDS011;10003;52.506;4.700;2023-11-21T02:50:16;0.93;;;0.93;;
19705;SDS011;10003;52.506;4.700;2023-11-21T02:52:46;0.50;;;0.50;;
19705;SDS011;10003;52.506;4.700;2023-11-21T02:55:15;0.70;;;0.70;;
19705;SDS011;10003;52.506;4.700;2023-11-21T02:57:45;0.50;;;0.50;;
19705;SDS011;10003;52.506;4.700;2023-11-21T03:00:14;0.50;;;0.50;;
19705;SDS011;10003;52.506;4.700;2023-11-21T03:02:42;0.50;;;0.50;;
19705;SDS011;10003;52.506;4.700;2023-11-21T03:05:11;0.70;;;0.70;;
19705;SDS011;10003;52.506;4.700;2023-11-21T03:07:39;0.60;;;0.60;;
19705;SDS011;10003;52.506;4.700;2023-11-21T03:10:08;0.60;;;0.60;;
19705;SDS011;10003;52.506;4.700;2023-11-21T03:12:37;0.50;;;0.50;;
19705;SDS011;10003;52.506;4.700;2023-11-21T03:15:08;3.37;;;2.00;;
19705;SDS011;10003;52.506;4.700;2023-11-21T03:17:36;0.50;;;0.50;;
19705;SDS011;10003;52.506;4.700;2023-11-21T03:20:05;0.50;;;0.50;;
19705;SDS011;10003;52.506;4.700;2023-11-21T03:22:37;0.80;;;0.80;;
19705;SDS011;10003;52.506;4.700;2023-11-21T03:25:06;0.50;;;0.50;;
19705;SDS011;10003;52.506;4.700;2023-11-21T03:27:37;0.67;;;0.67;;
19705;SDS011;10003;52.506;4.700;2023-11-21T03:30:08;0.50;;;0.50;;
19705;SDS011;10003;52.506;4.700;2023-11-21T03:32:37;0.50;;;0.50;;
19705;SDS011;10003;52.506;4.700;2023-11-21T03:35:06;0.70;;;0.70;;
19705;SDS011;10003;52.506;4.700;2023-11-21T03:37:35;0.50;;;0.50;;
19705;SDS011;10003;52.506;4.700;2023-11-21T03:40:05;0.50;;;0.50;;
19705;SDS011;10003;52.506;4.700;2023-11-21T03:42:34;0.50;;;0.50;;
19705;SDS011;10003;52.506;4.700;2023-11-21T03:45:03;0.50;;;0.50;;
19705;SDS011;10003;52.506;4.700;2023-11-21T03:47:33;0.40;;;0.40;;
19705;SDS011;10003;52.506;4.700;2023-11-21T03:50:02;0.50;;;0.50;;
19705;SDS011;10003;52.506;4.700;2023-11-21T03:52:30;0.50;;;0.50;;
19705;SDS011;10003;52.506;4.700;2023-11-21T03:54:59;0.50;;;0.50;;
19705;SDS011;10003;52.506;4.700;2023-11-21T03:57:27;0.50;;;0.50;;
19705;SDS011;10003;52.506;4.700;2023-11-21T03:59:56;1.73;;;1.63;;
19705;SDS011;10003;52.506;4.700;2023-11-21T04:02:24;0.50;;;0.50;;
19705;SDS011;10003;52.506;4.700;2023-11-21T04:04:56;0.50;;;0.50;;
19705;SDS011;10003;52.506;4.700;2023-11-21T04:07:24;0.50;;;0.50;;
19705;SDS011;10003;52.506;4.700;2023-11-21T04:09:53;0.50;;;0.50;;
19705;SDS011;10003;52.506;4.700;2023-11-21T04:12:21;1.40;;;1.37;;
19705;SDS011;10003;52.506;4.700;2023-11-21T04:14:50;0.40;;;0.40;;
19705;SDS011;10003;52.506;4.700;2023-11-21T04:17:21;0.60;;;0.60;;
19705;SDS011;10003;52.506;4.700;2023-11-21T04:19:50;0.50;;;0.50;;
19705;SDS011;10003;52.506;4.700;2023-11-21T04:22:20;0.50;;;0.50;;
19705;SDS011;10003;52.506;4.700;2023-11-21T04:24:48;0.50;;;0.50;;
19705;SDS011;10003;52.506;4.700;2023-11-21T04:27:17;0.50;;;0.50;;
19705;SDS011;10003;52.506;4.700;2023-11-21T04:29:45;0.50;;;0.50;;
19705;SDS011;10003;52.506;4.700;2023-11-21T04:32:13;0.50;;;0.50;;
19705;SDS011;10003;52.506;4.700;2023-11-21T04:34:42;0.63;;;0.63;;
19705;SDS011;10003;52.506;4.700;2023-11-21T04:37:10;0.60;;;0.60;;
19705;SDS011;10003;52.506;4.700;2023-11-21T04:39:41;1.00;;;0.90;;
19705;SDS011;10003;52.506;4.700;2023-11-21T04:42:09;0.80;;;0.80;;
19705;SDS011;10003;52.506;4.700;2023-11-21T04:44:39;0.50;;;0.50;;
19705;SDS011;10003;52.506;4.700;2023-11-21T04:47:07;1.77;;;0.87;;
19705;SDS011;10003;52.506;4.700;2023-11-21T04:49:36;2.37;;;2.20;;
19705;SDS011;10003;52.506;4.700;2023-11-21T04:52:04;0.50;;;0.50;;
19705;SDS011;10003;52.506;4.700;2023-11-21T04:54:33;0.60;;;0.60;;
19705;SDS011;10003;52.506;4.700;2023-11-21T04:57:03;0.80;;;0.80;;
19705;SDS011;10003;52.506;4.700;2023-11-21T04:59:33;0.83;;;0.83;;
19705;SDS011;10003;52.506;4.700;2023-11-21T05:02:02;0.80;;;0.80;;
19705;SDS011;10003;52.506;4.700;2023-11-21T05:04:31;6.33;;;1.53;;
19705;SDS011;10003;52.506;4.700;2023-11-21T05:07:00;0.50;;;0.50;;
19705;SDS011;10003;52.506;4.700;2023-11-21T05:09:28;1.37;;;1.10;;
19705;SDS011;10003;52.506;4.700;2023-11-21T05:11:58;1.70;;;0.80;;
19705;SDS011;10003;52.506;4.700;2023-11-21T05:14:28;0.97;;;0.90;;
19705;SDS011;10003;52.506;4.700;2023-11-21T05:16:57;1.47;;;1.07;;
19705;SDS011;10003;52.506;4.700;2023-11-21T05:19:25;3.83;;;1.07;;
19705;SDS011;10003;52.506;4.700;2023-11-21T05:21:55;0.70;;;0.70;;
19705;SDS011;10003;52.506;4.700;2023-11-21T05:24:23;2.93;;;1.93;;
19705;SDS011;10003;52.506;4.700;2023-11-21T05:26:51;3.70;;;2.83;;
19705;SDS011;10003;52.506;4.700;2023-11-21T05:29:20;1.57;;;1.57;;
19705;SDS011;10003;52.506;4.700;2023-11-21T05:31:50;1.13;;;1.13;;
19705;SDS011;10003;52.506;4.700;2023-11-21T05:34:19;2.27;;;1.40;;
19705;SDS011;10003;52.506;4.700;2023-11-21T05:36:50;8.33;;;2.70;;
19705;SDS011;10003;52.506;4.700;2023-11-21T05:39:18;3.53;;;1.97;;
19705;SDS011;10003;52.506;4.700;2023-11-21T05:41:48;4.20;;;2.33;;
19705;SDS011;10003;52.506;4.700;2023-11-21T05:44:16;4.00;;;2.10;;
19705;SDS011;10003;52.506;4.700;2023-11-21T05:46:44;3.00;;;1.73;;
19705;SDS011;10003;52.506;4.700;2023-11-21T05:49:14;9.30;;;2.57;;
19705;SDS011;10003;52.506;4.700;2023-11-21T05:51:44;6.63;;;2.10;;
19705;SDS011;10003;52.506;4.700;2023-11-21T05:54:12;4.10;;;2.37;;
19705;SDS011;10003;52.506;4.700;2023-11-21T05:56:41;5.90;;;2.90;;
19705;SDS011;10003;52.506;4.700;2023-11-21T05:59:09;6.23;;;2.70;;
19705;SDS011;10003;52.506;4.700;2023-11-21T06:01:38;1.80;;;1.70;;
19705;SDS011;10003;52.506;4.700;2023-11-21T06:04:06;1.70;;;1.50;;
19705;SDS011;10003;52.506;4.700;2023-11-21T06:06:37;1.33;;;1.30;;
19705;SDS011;10003;52.506;4.700;2023-11-21T06:09:05;3.50;;;1.20;;
19705;SDS011;10003;52.506;4.700;2023-11-21T06:11:35;1.30;;;1.20;;
19705;SDS011;10003;52.506;4.700;2023-11-21T06:14:03;1.23;;;1.13;;
19705;SDS011;10003;52.506;4.700;2023-11-21T06:16:34;2.83;;;1.60;;
19705;SDS011;10003;52.506;4.700;2023-11-21T06:19:03;2.30;;;1.57;;
19705;SDS011;10003;52.506;4.700;2023-11-21T06:21:31;3.17;;;2.13;;
19705;SDS011;10003;52.506;4.700;2023-11-21T06:24:01;1.30;;;1.23;;
19705;SDS011;10003;52.506;4.700;2023-11-21T06:26:30;2.43;;;1.80;;
19705;SDS011;10003;52.506;4.700;2023-11-21T06:28:59;1.40;;;1.30;;
19705;SDS011;10003;52.506;4.700;2023-11-21T06:31:29;0.87;;;0.87;;
19705;SDS011;10003;52.506;4.700;2023-11-21T06:33:59;1.57;;;1.47;;
19705;SDS011;10003;52.506;4.700;2023-11-21T06:36:27;6.60;;;1.90;;
19705;SDS011;10003;52.506;4.700;2023-11-21T06:38:56;3.23;;;2.20;;
19705;SDS011;10003;52.506;4.700;2023-11-21T06:41:25;1.77;;;1.67;;
19705;SDS011;10003;52.506;4.700;2023-11-21T06:43:54;3.63;;;1.43;;
19705;SDS011;10003;52.506;4.700;2023-11-21T06:46:24;1.97;;;1.87;;
19705;SDS011;10003;52.506;4.700;2023-11-21T06:48:53;3.67;;;2.20;;
19705;SDS011;10003;52.506;4.700;2023-11-21T06:51:22;4.40;;;2.77;;
19705;SDS011;10003;52.506;4.700;2023-11-21T06:53:50;0.70;;;0.70;;
19705;SDS011;10003;52.506;4.700;2023-11-21T06:56:19;6.13;;;2.47;;
19705;SDS011;10003;52.506;4.700;2023-11-21T06:58:49;5.03;;;2.10;;
19705;SDS011;10003;52.506;4.700;2023-11-21T07:01:20;2.77;;;2.43;;
19705;SDS011;10003;52.506;4.700;2023-11-21T07:03:48;2.83;;;2.33;;
19705;SDS011;10003;52.506;4.700;2023-11-21T07:06:17;2.37;;;2.03;;
19705;SDS011;10003;52.506;4.700;2023-11-21T07:08:45;4.03;;;2.37;;
19705;SDS011;10003;52.506;4.700;2023-11-21T07:11:14;9.90;;;4.43;;
19705;SDS011;10003;52.506;4.700;2023-11-21T07:13:43;5.83;;;3.07;;
19705;SDS011;10003;52.506;4.700;2023-11-21T07:16:13;6.03;;;2.87;;
19705;SDS011;10003;52.506;4.700;2023-11-21T07:18:42;3.50;;;1.93;;
19705;SDS011;10003;52.506;4.700;2023-11-21T07:21:11;1.70;;;1.60;;
19705;SDS011;10003;52.506;4.700;2023-11-21T07:23:39;2.60;;;2.40;;
19705;SDS011;10003;52.506;4.700;2023-11-21T07:26:07;6.47;;;2.63;;
19705;SDS011;10003;52.506;4.700;2023-11-21T07:28:37;5.00;;;3.53;;
19705;SDS011;10003;52.506;4.700;2023-11-21T07:31:05;9.53;;;3.77;;
19705;SDS011;10003;52.506;4.700;2023-11-21T07:33:35;2.87;;;2.53;;
19705;SDS011;10003;52.506;4.700;2023-11-21T07:36:05;3.97;;;2.20;;
19705;SDS011;10003;52.506;4.700;2023-11-21T07:38:34;2.00;;;1.87;;
19705;SDS011;10003;52.506;4.700;2023-11-21T07:41:02;4.33;;;2.30;;
19705;SDS011;10003;52.506;4.700;2023-11-21T07:43:38;3.33;;;2.40;;
19705;SDS011;10003;52.506;4.700;2023-11-21T07:46:07;4.97;;;3.63;;
19705;SDS011;10003;52.506;4.700;2023-11-21T07:48:40;2.73;;;2.20;;
19705;SDS011;10003;52.506;4.700;2023-11-21T07:51:09;3.67;;;2.43;;
19705;SDS011;10003;52.506;4.700;2023-11-21T07:53:39;2.73;;;2.47;;
19705;SDS011;10003;52.506;4.700;2023-11-21T07:56:08;5.40;;;3.67;;
19705;SDS011;10003;52.506;4.700;2023-11-21T07:58:36;4.47;;;2.57;;
19705;SDS011;10003;52.506;4.700;2023-11-21T08:01:05;3.30;;;2.37;;
19705;SDS011;10003;52.506;4.700;2023-11-21T08:03:34;3.70;;;3.30;;
19705;SDS011;10003;52.506;4.700;2023-11-21T08:06:05;2.00;;;1.90;;
19705;SDS011;10003;52.506;4.700;2023-11-21T08:08:33;2.57;;;2.37;;
19705;SDS011;10003;52.506;4.700;2023-11-21T08:11:02;2.77;;;2.50;;
19705;SDS011;10003;52.506;4.700;2023-11-21T08:13:31;3.63;;;3.20;;
19705;SDS011;10003;52.506;4.700;2023-11-21T08:16:00;6.20;;;3.03;;
19705;SDS011;10003;52.506;4.700;2023-11-21T08:18:31;2.90;;;2.37;;
19705;SDS011;10003;52.506;4.700;2023-11-21T08:21:00;4.67;;;1.83;;
19705;SDS011;10003;52.506;4.700;2023-11-21T08:23:30;5.07;;;2.70;;
19705;SDS011;10003;52.506;4.700;2023-11-21T08:26:00;3.47;;;2.00;;
19705;SDS011;10003;52.506;4.700;2023-11-21T08:28:32;1.93;;;1.83;;
19705;SDS011;10003;52.506;4.700;2023-11-21T08:31:00;7.40;;;3.60;;
19705;SDS011;10003;52.506;4.700;2023-11-21T08:33:29;2.73;;;2.53;;
19705;SDS011;10003;52.506;4.700;2023-11-21T08:35:57;5.63;;;2.73;;
19705;SDS011;10003;52.506;4.700;2023-11-21T08:38:27;2.90;;;1.77;;
19705;SDS011;10003;52.506;4.700;2023-11-21T08:40:57;2.50;;;2.03;;
19705;SDS011;10003;52.506;4.700;2023-11-21T08:43:26;3.23;;;1.87;;
19705;SDS011;10003;52.506;4.700;2023-11-21T08:45:55;3.70;;;2.87;;
19705;SDS011;10003;52.506;4.700;2023-11-21T08:48:24;2.67;;;1.30;;
19705;SDS011;10003;52.506;4.700;2023-11-21T08:50:55;3.17;;;2.77;;
19705;SDS011;10003;52.506;4.700;2023-11-21T08:53:24;1.67;;;1.57;;
19705;SDS011;10003;52.506;4.700;2023-11-21T08:55:53;6.70;;;2.37;;
19705;SDS011;10003;52.506;4.700;2023-11-21T08:58:23;3.83;;;1.90;;
19705;SDS011;10003;52.506;4.700;2023-11-21T09:00:51;1.73;;;1.40;;
19705;SDS011;10003;52.506;4.700;2023-11-21T09:03:20;2.43;;;1.73;;
19705;SDS011;10003;52.506;4.700;2023-11-21T09:05:49;2.80;;;2.37;;
19705;SDS011;10003;52.506;4.700;2023-11-21T09:08:17;3.53;;;3.00;;
19705;SDS011;10003;52.506;4.700;2023-11-21T09:10:48;2.07;;;1.77;;
19705;SDS011;10003;52.506;4.700;2023-11-21T09:13:17;3.57;;;1.87;;
19705;SDS011;10003;52.506;4.700;2023-11-21T09:15:49;3.47;;;2.37;;
19705;SDS011;10003;52.506;4.700;2023-11-21T09:18:20;2.17;;;1.90;;
19705;SDS011;10003;52.506;4.700;2023-11-21T09:20:49;5.23;;;2.93;;
19705;SDS011;10003;52.506;4.700;2023-11-21T09:23:18;1.77;;;1.57;;
19705;SDS011;10003;52.506;4.700;2023-11-21T09:25:47;2.00;;;1.90;;
19705;SDS011;10003;52.506;4.700;2023-11-21T09:28:16;4.47;;;2.00;;
19705;SDS011;10003;52.506;4.700;2023-11-21T09:30:45;6.23;;;2.80;;
19705;SDS011;10003;52.506;4.700;2023-11-21T09:33:16;2.10;;;1.90;;
19705;SDS011;10003;52.506;4.700;2023-11-21T09:35:45;2.43;;;2.10;;
19705;SDS011;10003;52.506;4.700;2023-11-21T09:38:18;5.10;;;2.47;;
19705;SDS011;10003;52.506;4.700;2023-11-21T09:40:47;3.57;;;2.43;;
19705;SDS011;10003;52.506;4.700;2023-11-21T09:43:16;5.03;;;3.20;;
19705;SDS011;10003;52.506;4.700;2023-11-21T09:45:46;2.90;;;2.60;;
19705;SDS011;10003;52.506;4.700;2023-11-21T09:48:14;3.30;;;3.00;;
19705;SDS011;10003;52.506;4.700;2023-11-21T09:50:44;2.83;;;2.33;;
19705;SDS011;10003;52.506;4.700;2023-11-21T09:53:18;2.63;;;1.83;;
19705;SDS011;10003;52.506;4.700;2023-11-21T09:55:48;4.00;;;2.40;;
19705;SDS011;10003;52.506;4.700;2023-11-21T09:58:19;3.77;;;2.63;;
19705;SDS011;10003;52.506;4.700;2023-11-21T10:00:55;2.27;;;1.83;;
19705;SDS011;10003;52.506;4.700;2023-11-21T10:03:24;6.07;;;2.83;;
19705;SDS011;10003;52.506;4.700;2023-11-21T10:05:54;3.90;;;3.03;;
19705;SDS011;10003;52.506;4.700;2023-11-21T10:08:27;2.50;;;2.30;;
19705;SDS011;10003;52.506;4.700;2023-11-21T10:11:18;5.50;;;2.50;;
19705;SDS011;10003;52.506;4.700;2023-11-21T10:13:48;4.53;;;3.53;;
19705;SDS011;10003;52.506;4.700;2023-11-21T10:16:20;2.57;;;2.37;;
19705;SDS011;10003;52.506;4.700;2023-11-21T10:18:51;4.47;;;2.93;;
19705;SDS011;10003;52.506;4.700;2023-11-21T10:21:37;4.73;;;3.17;;
19705;SDS011;10003;52.506;4.700;2023-11-21T10:24:07;7.73;;;4.03;;
19705;SDS011;10003;52.506;4.700;2023-11-21T10:26:36;4.30;;;2.20;;
19705;SDS011;10003;52.506;4.700;2023-11-21T10:29:18;7.40;;;5.07;;
19705;SDS011;10003;52.506;4.700;2023-11-21T10:31:49;2.83;;;2.30;;
19705;SDS011;10003;52.506;4.700;2023-11-21T10:34:18;2.43;;;1.80;;
19705;SDS011;10003;52.506;4.700;2023-11-21T10:36:49;4.53;;;2.67;;
19705;SDS011;10003;52.506;4.700;2023-11-21T10:39:18;2.90;;;2.47;;
19705;SDS011;10003;52.506;4.700;2023-11-21T10:41:50;2.83;;;2.57;;
19705;SDS011;10003;52.506;4.700;2023-11-21T10:44:19;4.73;;;3.07;;
19705;SDS011;10003;52.506;4.700;2023-11-21T10:46:48;6.40;;;4.57;;
19705;SDS011;10003;52.506;4.700;2023-11-21T10:49:18;3.90;;;3.53;;
19705;SDS011;10003;52.506;4.700;2023-11-21T10:51:46;4.93;;;2.97;;
19705;SDS011;10003;52.506;4.700;2023-11-21T10:54:19;4.23;;;3.53;;
19705;SDS011;10003;52.506;4.700;2023-11-21T10:56:49;4.63;;;3.20;;
19705;SDS011;10003;52.506;4.700;2023-11-21T10:59:18;4.30;;;3.17;;
19705;SDS011;10003;52.506;4.700;2023-11-21T11:01:51;2.40;;;2.20;;
19705;SDS011;10003;52.506;4.700;2023-11-21T11:04:20;4.67;;;3.83;;
19705;SDS011;10003;52.506;4.700;2023-11-21T11:06:50;2.73;;;2.33;;
19705;SDS011;10003;52.506;4.700;2023-11-21T11:09:24;4.97;;;4.47;;
19705;SDS011;10003;52.506;4.700;2023-11-21T11:11:52;4.33;;;3.93;;
19705;SDS011;10003;52.506;4.700;2023-11-21T11:14:21;6.63;;;4.47;;
19705;SDS011;10003;52.506;4.700;2023-11-21T11:16:53;3.53;;;3.20;;
19705;SDS011;10003;52.506;4.700;2023-11-21T11:19:22;4.93;;;3.23;;
19705;SDS011;10003;52.506;4.700;2023-11-21T11:21:58;5.23;;;4.20;;
19705;SDS011;10003;52.506;4.700;2023-11-21T11:24:40;4.70;;;3.53;;
19705;SDS011;10003;52.506;4.700;2023-11-21T11:27:15;4.47;;;3.67;;
19705;SDS011;10003;52.506;4.700;2023-11-21T11:30:00;6.17;;;3.60;;
19705;SDS011;10003;52.506;4.700;2023-11-21T11:32:40;4.70;;;4.17;;
19705;SDS011;10003;52.506;4.700;2023-11-21T11:35:13;3.27;;;2.97;;
19705;SDS011;10003;52.506;4.700;2023-11-21T11:37:45;5.10;;;3.57;;
19705;SDS011;10003;52.506;4.700;2023-11-21T11:40:15;5.37;;;2.97;;
19705;SDS011;10003;52.506;4.700;2023-11-21T11:42:57;4.33;;;3.30;;
19705;SDS011;10003;52.506;4.700;2023-11-21T11:45:31;2.70;;;2.50;;
19705;SDS011;10003;52.506;4.700;2023-11-21T11:48:03;10.77;;;3.33;;
19705;SDS011;10003;52.506;4.700;2023-11-21T11:50:34;4.50;;;3.20;;
19705;SDS011;10003;52.506;4.700;2023-11-21T11:53:11;6.00;;;4.07;;
19705;SDS011;10003;52.506;4.700;2023-11-21T11:55:46;3.77;;;3.07;;
19705;SDS011;10003;52.506;4.700;2023-11-21T11:58:16;4.57;;;3.03;;
19705;SDS011;10003;52.506;4.700;2023-11-21T12:00:47;8.30;;;4.53;;
19705;SDS011;10003;52.506;4.700;2023-11-21T12:03:24;3.70;;;2.30;;
19705;SDS011;10003;52.506;4.700;2023-11-21T12:05:53;4.67;;;3.57;;
19705;SDS011;10003;52.506;4.700;2023-11-21T12:08:24;3.90;;;3.23;;
19705;SDS011;10003;52.506;4.700;2023-11-21T12:11:00;4.83;;;3.90;;
19705;SDS011;10003;52.506;4.700;2023-11-21T12:13:29;6.87;;;4.70;;
19705;SDS011;10003;52.506;4.700;2023-11-21T12:16:01;5.07;;;4.03;;
19705;SDS011;10003;52.506;4.700;2023-11-21T12:18:29;2.23;;;2.00;;
19705;SDS011;10003;52.506;4.700;2023-11-21T12:20:58;4.40;;;3.73;;
19705;SDS011;10003;52.506;4.700;2023-11-21T12:23:29;4.43;;;3.90;;
19705;SDS011;10003;52.506;4.700;2023-11-21T12:25:59;3.00;;;2.77;;
19705;SDS011;10003;52.506;4.700;2023-11-21T12:28:29;4.37;;;2.30;;
19705;SDS011;10003;52.506;4.700;2023-11-21T12:31:03;2.73;;;2.57;;
19705;SDS011;10003;52.506;4.700;2023-11-21T12:33:48;5.20;;;2.63;;
19705;SDS011;10003;52.506;4.700;2023-11-21T12:36:17;1.87;;;1.77;;
19705;SDS011;10003;52.506;4.700;2023-11-21T12:38:46;2.80;;;2.33;;
19705;SDS011;10003;52.506;4.700;2023-11-21T12:41:15;2.37;;;1.87;;
19705;SDS011;10003;52.506;4.700;2023-11-21T12:43:46;6.87;;;2.00;;
19705;SDS011;10003;52.506;4.700;2023-11-21T12:46:15;1.70;;;1.60;;
19705;SDS011;10003;52.506;4.700;2023-11-21T12:48:44;2.67;;;2.47;;
19705;SDS011;10003;52.506;4.700;2023-11-21T12:51:13;3.40;;;3.07;;
19705;SDS011;10003;52.506;4.700;2023-11-21T12:53:42;2.57;;;2.07;;
19705;SDS011;10003;52.506;4.700;2023-11-21T12:56:11;3.47;;;3.17;;
19705;SDS011;10003;52.506;4.700;2023-11-21T12:58:40;1.93;;;1.70;;
19705;SDS011;10003;52.506;4.700;2023-11-21T13:01:15;3.30;;;2.67;;
19705;SDS011;10003;52.506;4.700;2023-11-21T13:03:48;2.23;;;1.97;;
19705;SDS011;10003;52.506;4.700;2023-11-21T13:06:18;2.43;;;2.23;;
19705;SDS011;10003;52.506;4.700;2023-11-21T13:08:51;7.83;;;4.53;;
19705;SDS011;10003;52.506;4.700;2023-11-21T13:11:20;6.73;;;4.33;;
19705;SDS011;10003;52.506;4.700;2023-11-21T13:13:51;4.27;;;3.83;;
19705;SDS011;10003;52.506;4.700;2023-11-21T13:16:22;4.97;;;4.23;;
19705;SDS011;10003;52.506;4.700;2023-11-21T13:18:50;7.80;;;4.53;;
19705;SDS011;10003;52.506;4.700;2023-11-21T13:21:19;5.67;;;4.67;;
19705;SDS011;10003;52.506;4.700;2023-11-21T13:23:48;6.47;;;3.40;;
19705;SDS011;10003;52.506;4.700;2023-11-21T13:26:19;7.37;;;4.37;;
19705;SDS011;10003;52.506;4.700;2023-11-21T13:28:50;2.53;;;2.03;;
19705;SDS011;10003;52.506;4.700;2023-11-21T13:31:20;3.33;;;2.03;;
19705;SDS011;10003;52.506;4.700;2023-11-21T13:33:54;3.07;;;2.40;;
19705;SDS011;10003;52.506;4.700;2023-11-21T13:36:25;6.70;;;4.20;;
19705;SDS011;10003;52.506;4.700;2023-11-21T13:38:58;2.43;;;2.20;;
19705;SDS011;10003;52.506;4.700;2023-11-21T13:41:34;3.00;;;2.73;;
19705;SDS011;10003;52.506;4.700;2023-11-21T13:44:05;6.23;;;5.17;;
19705;SDS011;10003;52.506;4.700;2023-11-21T13:46:42;5.60;;;4.47;;
19705;SDS011;10003;52.506;4.700;2023-11-21T13:49:14;6.67;;;3.73;;
19705;SDS011;10003;52.506;4.700;2023-11-21T13:51:43;4.67;;;4.07;;
19705;SDS011;10003;52.506;4.700;2023-11-21T13:54:14;3.77;;;3.07;;
19705;SDS011;10003;52.506;4.700;2023-11-21T13:56:46;4.57;;;3.90;;
19705;SDS011;10003;52.506;4.700;2023-11-21T13:59:17;4.10;;;3.53;;
19705;SDS011;10003;52.506;4.700;2023-11-21T14:01:50;5.23;;;4.47;;
19705;SDS011;10003;52.506;4.700;2023-11-21T14:04:27;5.87;;;4.23;;
19705;SDS011;10003;52.506;4.700;2023-11-21T14:07:13;3.27;;;3.03;;
19705;SDS011;10003;52.506;4.700;2023-11-21T14:09:52;6.33;;;4.17;;
19705;SDS011;10003;52.506;4.700;2023-11-21T14:12:21;3.63;;;3.33;;
19705;SDS011;10003;52.506;4.700;2023-11-21T14:14:50;4.73;;;3.67;;
19705;SDS011;10003;52.506;4.700;2023-11-21T14:17:19;5.47;;;3.87;;
19705;SDS011;10003;52.506;4.700;2023-11-21T14:19:50;3.90;;;2.93;;
19705;SDS011;10003;52.506;4.700;2023-11-21T14:22:19;6.23;;;3.83;;
19705;SDS011;10003;52.506;4.700;2023-11-21T14:24:51;3.90;;;3.53;;
19705;SDS011;10003;52.506;4.700;2023-11-21T14:27:22;7.00;;;6.30;;
19705;SDS011;10003;52.506;4.700;2023-11-21T14:29:53;5.40;;;4.33;;
19705;SDS011;10003;52.506;4.700;2023-11-21T14:32:23;9.33;;;4.93;;
19705;SDS011;10003;52.506;4.700;2023-11-21T14:34:54;4.57;;;4.07;;
19705;SDS011;10003;52.506;4.700;2023-11-21T14:37:24;5.67;;;4.40;;
19705;SDS011;10003;52.506;4.700;2023-11-21T14:39:55;3.60;;;3.30;;
19705;SDS011;10003;52.506;4.700;2023-11-21T14:42:24;4.20;;;3.70;;
19705;SDS011;10003;52.506;4.700;2023-11-21T14:44:56;4.83;;;4.13;;
19705;SDS011;10003;52.506;4.700;2023-11-21T14:47:29;4.33;;;3.77;;
19705;SDS011;10003;52.506;4.700;2023-11-21T14:50:00;6.13;;;5.13;;
19705;SDS011;10003;52.506;4.700;2023-11-21T14:52:50;5.10;;;4.60;;
19705;SDS011;10003;52.506;4.700;2023-11-21T14:55:25;4.87;;;3.73;;
19705;SDS011;10003;52.506;4.700;2023-11-21T14:57:58;5.20;;;4.67;;
19705;SDS011;10003;52.506;4.700;2023-11-21T15:00:30;6.47;;;5.53;;
19705;SDS011;10003;52.506;4.700;2023-11-21T15:03:12;3.13;;;2.20;;
19705;SDS011;10003;52.506;4.700;2023-11-21T15:06:12;2.03;;;1.83;;